Time;durP1;ratioP1;P1;durP2;ratioP2;P2;SDS_P1;SDS_P2;PMS_P1;PMS_P2;Temp;Humidity;BMP_temperature;BMP_pressure;BME280_temperature;BME280_humidity;BME280_pressure;Samples;Min_cycle;Max_cycle;Signal;HPM_P1;HPM_P2
2022/02/22 00:01:36;;;;;;;;;;;;;;;28.43;65.71;101112.13;4959498;28;70816;-42
2022/02/22 00:04:07;;;;;;;;;;;;;;;28.43;65.89;101101.31;4971462;28;66344;-41
2022/02/22 00:06:37;;;;;;;;;;;;;;;28.52;65.78;101115.47;4960541;28;70371;-40
2022/02/22 00:09:08;;;;;;;;;;;;;;;28.48;67.05;101104.25;4971588;28;66965;-41
2022/02/22 00:11:38;;;;;;;;;;;;;;;28.52;66.67;101105.53;4980043;28;70637;-42
2022/02/22 00:14:08;;;;;;;;;;;;;;;28.62;66.41;101115.13;4953396;28;64785;-40
2022/02/22 00:16:37;;;;;;;;;;;;;;;28.51;69.20;101111.13;4976339;28;69061;-39
2022/02/22 00:19:07;;;;;;;;;;;;;;;28.41;69.79;101106.03;4966996;28;66340;-40
2022/02/22 00:21:37;;;;;;;;;;;;;;;28.33;70.29;101111.59;4979462;28;70469;-40
2022/02/22 00:24:06;;;;;;;;;;;;;;;28.25;70.49;101109.03;4978434;28;66603;-39
2022/02/22 00:26:36;;;;;;;;;;;;;;;28.21;71.05;101110.50;4979625;28;68844;-41
2022/02/22 00:29:06;;;;;;;;;;;;;;;28.32;70.06;101120.72;4997788;28;66227;-41
2022/02/22 00:31:36;;;;;;;;;;;;;;;28.39;70.04;101116.22;4991331;27;69947;-41
2022/02/22 00:34:07;;;;;;;;;;;;;;;28.48;69.53;101115.06;4980791;28;66002;-40
2022/02/22 00:36:37;;;;;;;;;;;;;;;28.57;69.70;101123.00;4987491;28;69133;-41
2022/02/22 00:39:07;;;;;;;;;;;;;;;28.59;70.06;101120.94;4974771;28;66798;-41
2022/02/22 00:41:37;;;;;;;;;;;;;;;28.61;68.11;101113.47;4969376;28;69790;-41
2022/02/22 00:44:07;;;;;;;;;;;;;;;28.51;68.87;101106.56;4958484;28;66261;-41
2022/02/22 00:46:37;;;;;;;;;;;;;;;28.71;68.16;101119.34;4958450;28;69992;-40
2022/02/22 00:49:08;;;;;;;;;;;;;;;28.79;68.28;101121.88;4974048;28;65644;-41
2022/02/22 00:51:38;;;;;;;;;;;;;;;28.84;67.67;101118.56;4967225;28;69583;-41
2022/02/22 00:54:07;;;;;;;;;;;;;;;28.90;67.31;101118.59;4976905;28;65516;-41
2022/02/22 00:56:37;;;;;;;;;;;;;;;28.95;67.00;101126.09;4980533;27;70323;-41
2022/02/22 00:59:07;;;;;;;;;;;;;;;29.00;66.36;101133.56;4978191;28;66146;-41
2022/02/22 01:01:37;;;;;;;;;;;;;;;29.04;65.94;101132.19;4980350;27;71347;-41
2022/02/22 01:04:06;;;;;;;;;;;;;;;29.08;65.82;101136.13;4980657;28;65889;-41
2022/02/22 01:06:36;;;;;;;;;;;;;;;29.12;65.86;101140.13;4981632;28;70510;-41
2022/02/22 01:09:07;;;;;;;;;;;;;;;29.15;65.48;101142.41;4978437;28;65236;-41
2022/02/22 01:11:38;;;;;;;;;;;;;;;29.18;64.95;101142.00;4982448;28;69368;-41
2022/02/22 01:14:07;;;;;;;;;;;;;;;29.23;65.06;101150.34;4979832;28;65699;-41
2022/02/22 01:16:37;;;;;;;;;;;;;;;29.25;64.71;101150.13;4979024;28;70269;-41
2022/02/22 01:19:08;;;;;;;;;;;;;;;29.28;64.24;101153.28;4964690;28;66237;-41
2022/02/22 01:21:37;;;;;;;;;;;;;;;29.31;64.41;101152.84;4991273;27;70665;-41
2022/02/22 01:24:08;;;;;;;;;;;;;;;29.33;64.08;101156.16;4994270;27;67333;-42
2022/02/22 01:26:38;;;;;;;;;;;;;;;29.35;63.47;101161.38;4971176;28;69577;-41
2022/02/22 01:29:08;;;;;;;;;;;;;;;29.37;63.31;101168.25;4958142;28;65656;-41
2022/02/22 01:31:37;;;;;;;;;;;;;;;29.40;63.09;101164.31;4977165;28;70143;-42
2022/02/22 01:34:07;;;;;;;;;;;;;;;29.42;63.15;101169.50;4976898;28;66430;-41
2022/02/22 01:36:37;;;;;;;;;;;;;;;29.45;62.78;101174.50;4978352;28;70367;-42
2022/02/22 01:39:07;;;;;;;;;;;;;;;29.47;62.48;101172.44;4974105;28;66449;-41
2022/02/22 01:41:39;;;;;;;;;;;;;;;29.49;62.72;101175.78;4979125;28;70240;-41
2022/02/22 01:44:08;;;;;;;;;;;;;;;29.51;62.39;101179.09;4977697;28;65785;-41
2022/02/22 01:46:38;;;;;;;;;;;;;;;29.54;62.20;101184.09;4975876;28;69022;-41
2022/02/22 01:49:09;;;;;;;;;;;;;;;29.55;62.00;101185.75;4978226;28;65915;-40
2022/02/22 01:51:40;;;;;;;;;;;;;;;29.56;61.75;101187.41;4977337;28;70699;-40
2022/02/22 01:54:10;;;;;;;;;;;;;;;29.60;62.11;101191.38;4978519;28;66001;-40
2022/02/22 01:56:41;;;;;;;;;;;;;;;29.60;61.90;101194.09;4978850;28;70098;-41
2022/02/22 01:59:12;;;;;;;;;;;;;;;29.62;61.57;101195.56;4964763;28;65913;-41
2022/02/22 02:01:42;;;;;;;;;;;;;;;29.64;61.27;101199.94;4977249;28;69839;-41
2022/02/22 02:04:13;;;;;;;;;;;;;;;29.66;61.86;101209.53;4991457;27;66507;-40
2022/02/22 02:06:42;;;;;;;;;;;;;;;29.67;60.92;101205.81;4959296;28;70590;-45
2022/02/22 02:09:14;;;;;;;;;;;;;;;29.70;61.09;101209.94;4959008;28;66629;-41
2022/02/22 02:11:49;;;;;;;;;;;;;;;29.70;61.27;101199.97;4972259;28;68266;-41
2022/02/22 02:14:19;;;;;;;;;;;;;;;29.73;60.15;101206.84;4957186;28;66139;-41
2022/02/22 02:16:49;;;;;;;;;;;;;;;29.74;60.39;101195.81;4974754;28;70827;-41
2022/02/22 02:19:19;;;;;;;;;;;;;;;29.76;59.69;101201.84;4957979;28;66304;-41
2022/02/22 02:21:49;;;;;;;;;;;;;;;29.77;59.54;101195.41;4970770;28;69986;-41
2022/02/22 02:24:19;;;;;;;;;;;;;;;29.80;59.92;101207.69;4978153;28;67172;-41
2022/02/22 02:26:49;;;;;;;;;;;;;;;29.82;59.55;101192.09;4992062;28;69722;-40
2022/02/22 02:29:21;;;;;;;;;;;;;;;29.84;59.43;101196.25;4990178;28;64427;-41
2022/02/22 02:31:51;;;;;;;;;;;;;;;29.87;58.94;101200.44;4978790;28;70567;-41
2022/02/22 02:34:23;;;;;;;;;;;;;;;29.89;58.96;101200.19;4971488;28;66242;-41
2022/02/22 02:36:53;;;;;;;;;;;;;;;29.93;58.77;101198.78;4982360;27;69144;-40
2022/02/22 02:39:24;;;;;;;;;;;;;;;29.95;58.58;101207.47;4978667;28;66045;-41
2022/02/22 02:41:54;;;;;;;;;;;;;;;29.96;58.76;101210.00;4989677;28;70259;-41
2022/02/22 02:44:24;;;;;;;;;;;;;;;29.99;58.41;101208.75;4978327;28;66502;-41
2022/02/22 02:46:54;;;;;;;;;;;;;;;30.02;58.24;101203.75;4976605;28;69670;-41
2022/02/22 02:49:25;;;;;;;;;;;;;;;30.04;58.46;101206.28;4977270;28;67123;-41
2022/02/22 02:51:55;;;;;;;;;;;;;;;30.06;58.51;101201.47;4977288;28;70500;-41
2022/02/22 02:54:26;;;;;;;;;;;;;;;30.10;58.01;101199.19;4987986;27;66072;-41
2022/02/22 02:56:56;;;;;;;;;;;;;;;30.12;57.97;101200.66;4960381;28;69241;-41
2022/02/22 02:59:27;;;;;;;;;;;;;;;30.14;58.11;101206.66;4974089;28;65583;-41
2022/02/22 03:01:57;;;;;;;;;;;;;;;30.16;57.66;101201.88;4965485;28;69909;-42
2022/02/22 03:04:29;;;;;;;;;;;;;;;30.19;57.88;101204.19;4976983;28;66387;-42
2022/02/22 03:06:59;;;;;;;;;;;;;;;30.21;57.43;101196.69;4976072;28;69152;-41
2022/02/22 03:09:30;;;;;;;;;;;;;;;30.22;57.34;101195.66;4990118;28;66422;-41
2022/02/22 03:12:00;;;;;;;;;;;;;;;30.23;57.43;101197.34;4975099;28;69216;-41
2022/02/22 03:14:31;;;;;;;;;;;;;;;30.26;57.32;101186.13;4977911;28;66257;-41
2022/02/22 03:17:01;;;;;;;;;;;;;;;30.28;57.32;101185.88;4972343;28;70275;-42
2022/02/22 03:19:33;;;;;;;;;;;;;;;30.28;57.23;101189.44;4963666;28;66634;-51
2022/02/22 03:22:03;;;;;;;;;;;;;;;30.32;57.14;101189.03;4975001;28;69946;-42
2022/02/22 03:24:34;;;;;;;;;;;;;;;30.34;57.00;101184.22;4965992;28;65381;-41
2022/02/22 03:27:04;;;;;;;;;;;;;;;30.37;56.86;101189.22;4961284;28;70446;-41
2022/02/22 03:29:35;;;;;;;;;;;;;;;30.38;57.40;101186.31;4977577;27;66259;-41
2022/02/22 03:32:07;;;;;;;;;;;;;;;30.40;56.94;101188.81;4962054;28;69025;-41
2022/02/22 03:34:38;;;;;;;;;;;;;;;30.42;57.46;101186.72;4950154;28;66478;-42
2022/02/22 03:37:10;;;;;;;;;;;;;;;30.44;56.76;101184.63;4983679;28;70246;-42
2022/02/22 03:39:39;;;;;;;;;;;;;;;30.44;56.80;101184.63;4964277;28;65537;-41
2022/02/22 03:42:09;;;;;;;;;;;;;;;30.47;57.08;101186.91;4961906;28;69907;-41
2022/02/22 03:44:40;;;;;;;;;;;;;;;30.48;56.59;101183.19;4956927;28;66142;-42
2022/02/22 03:47:09;;;;;;;;;;;;;;;30.50;56.45;101178.38;4968730;28;70663;-46
2022/02/22 03:49:40;;;;;;;;;;;;;;;30.53;56.70;101177.13;4975684;28;66740;-42
2022/02/22 03:52:10;;;;;;;;;;;;;;;30.55;56.36;101175.88;4976699;28;70357;-42
2022/02/22 03:54:42;;;;;;;;;;;;;;;30.56;56.91;101182.94;4975834;28;67045;-42
2022/02/22 03:57:11;;;;;;;;;;;;;;;30.57;56.85;101176.50;4976530;27;70309;-46
2022/02/22 03:59:43;;;;;;;;;;;;;;;30.61;56.43;101171.47;4974537;28;65219;-42
2022/02/22 04:02:13;;;;;;;;;;;;;;;30.61;56.62;101164.19;4976410;28;69097;-42
2022/02/22 04:04:44;;;;;;;;;;;;;;;30.63;56.31;101153.16;4990503;28;66888;-41
2022/02/22 04:07:14;;;;;;;;;;;;;;;30.65;56.79;101154.63;4974920;28;69940;-41
2022/02/22 04:09:46;;;;;;;;;;;;;;;30.67;56.24;101146.25;4973456;28;66255;-41
2022/02/22 04:12:20;;;;;;;;;;;;;;;30.68;56.54;101147.94;4976464;27;70287;-41
2022/02/22 04:14:50;;;;;;;;;;;;;;;30.68;56.47;101137.94;4976691;28;66124;-41
2022/02/22 04:17:19;;;;;;;;;;;;;;;30.70;56.25;101137.72;4972714;28;69235;-41
2022/02/22 04:19:49;;;;;;;;;;;;;;;30.71;56.26;101142.94;4964107;28;66838;-41
2022/02/22 04:22:19;;;;;;;;;;;;;;;30.72;56.42;101133.75;4965431;28;70236;-41
2022/02/22 04:24:50;;;;;;;;;;;;;;;30.76;56.15;101136.03;4983782;27;67321;-42
2022/02/22 04:27:20;;;;;;;;;;;;;;;30.78;56.28;101131.22;4974311;28;70290;-41
2022/02/22 04:29:51;;;;;;;;;;;;;;;30.79;55.92;101127.50;4981591;28;67033;-42
2022/02/22 04:32:21;;;;;;;;;;;;;;;30.80;55.80;101134.59;4977139;27;69386;-41
2022/02/22 04:34:52;;;;;;;;;;;;;;;30.80;56.17;101134.59;4959455;28;65902;-41
2022/02/22 04:37:22;;;;;;;;;;;;;;;30.82;56.24;101121.69;4976559;28;70483;-42
2022/02/22 04:39:54;;;;;;;;;;;;;;;30.85;55.39;101122.06;4978888;28;65986;-41
2022/02/22 04:42:24;;;;;;;;;;;;;;;30.87;55.88;101113.72;4979129;28;70204;-42
2022/02/22 04:44:55;;;;;;;;;;;;;;;30.88;55.71;101116.22;4977609;28;65930;-42
2022/02/22 04:47:25;;;;;;;;;;;;;;;30.91;56.00;101114.97;4975220;28;69134;-42
2022/02/22 04:49:55;;;;;;;;;;;;;;;30.90;56.02;101108.72;4980113;28;66108;-42
2022/02/22 04:52:24;;;;;;;;;;;;;;;30.92;55.44;101106.66;4979188;28;70170;-42
2022/02/22 04:54:54;;;;;;;;;;;;;;;30.93;55.73;101110.19;4963383;28;65560;-42
2022/02/22 04:57:24;;;;;;;;;;;;;;;30.93;56.03;101102.06;4966156;28;69272;-42
2022/02/22 04:59:53;;;;;;;;;;;;;;;30.94;55.40;101101.81;4959754;28;66091;-42
2022/02/22 05:02:23;;;;;;;;;;;;;;;30.97;55.44;101091.59;4957394;28;70636;-41
2022/02/22 05:04:53;;;;;;;;;;;;;;;30.99;55.66;101090.34;4964794;28;66689;-42
2022/02/22 05:07:23;;;;;;;;;;;;;;;31.01;55.45;101081.97;4988643;27;69821;-41
2022/02/22 05:09:52;;;;;;;;;;;;;;;31.03;55.08;101080.72;4979150;28;66544;-41
2022/02/22 05:12:22;;;;;;;;;;;;;;;31.05;55.77;101077.81;4978491;28;70242;-42
2022/02/22 05:14:52;;;;;;;;;;;;;;;31.05;55.71;101073.22;4978078;28;66134;-42
2022/02/22 05:17:21;;;;;;;;;;;;;;;31.07;55.22;101071.13;4962971;28;69116;-41
2022/02/22 05:19:51;;;;;;;;;;;;;;;31.08;55.12;101064.66;4979155;28;66499;-41
2022/02/22 05:22:21;;;;;;;;;;;;;;;31.09;55.30;101074.47;4980178;27;70134;-41
2022/02/22 05:24:51;;;;;;;;;;;;;;;31.12;55.57;101073.16;4965359;28;66647;-42
2022/02/22 05:27:20;;;;;;;;;;;;;;;31.13;55.22;101075.66;4962982;28;70397;-40
2022/02/22 05:29:50;;;;;;;;;;;;;;;31.16;55.19;101064.41;4979443;28;66023;-41
2022/02/22 05:32:20;;;;;;;;;;;;;;;31.16;55.25;101058.97;4976767;28;70018;-42
2022/02/22 05:34:49;;;;;;;;;;;;;;;31.19;54.87;101051.47;4977721;28;66081;-43
2022/02/22 05:37:19;;;;;;;;;;;;;;;31.20;55.23;101045.81;4979180;28;69699;-43
2022/02/22 05:39:49;;;;;;;;;;;;;;;31.21;55.10;101043.97;4977333;28;66624;-42
2022/02/22 05:42:19;;;;;;;;;;;;;;;31.21;55.03;101033.94;4976978;28;70380;-41
2022/02/22 05:44:48;;;;;;;;;;;;;;;31.23;55.50;101036.41;4980562;27;66571;-42
2022/02/22 05:47:18;;;;;;;;;;;;;;;31.24;55.13;101025.38;4976684;28;70847;-41
2022/02/22 05:49:48;;;;;;;;;;;;;;;31.24;55.62;101027.25;4977470;28;66536;-43
2022/02/22 05:52:18;;;;;;;;;;;;;;;31.26;55.47;101025.13;4978391;28;69270;-42
2022/02/22 05:54:48;;;;;;;;;;;;;;;31.27;55.36;101015.97;4969495;27;67494;-42
2022/02/22 05:57:17;;;;;;;;;;;;;;;31.28;55.49;101006.78;4984725;28;69974;-42
2022/02/22 05:59:47;;;;;;;;;;;;;;;31.31;55.54;101014.47;4978729;28;65767;-42
2022/02/22 06:02:17;;;;;;;;;;;;;;;31.32;55.20;101014.25;4975886;28;70310;-42
2022/02/22 06:04:46;;;;;;;;;;;;;;;31.36;55.00;101020.09;4977554;28;65233;-41
2022/02/22 06:07:21;;;;;;;;;;;;;;;31.36;55.40;101010.06;4978432;28;70444;-41
2022/02/22 06:09:50;;;;;;;;;;;;;;;31.39;55.49;101006.09;4973697;28;66678;-42
2022/02/22 06:12:20;;;;;;;;;;;;;;;31.40;55.01;100996.94;4970077;28;70453;-42
2022/02/22 06:14:50;;;;;;;;;;;;;;;31.43;55.46;100991.06;4977857;28;66673;-42
2022/02/22 06:17:21;;;;;;;;;;;;;;;31.45;55.04;100991.66;4977503;28;71584;-42
2022/02/22 06:19:51;;;;;;;;;;;;;;;31.48;54.83;100974.13;4979919;28;66067;-42
2022/02/22 06:22:21;;;;;;;;;;;;;;;31.47;55.41;100973.28;4976889;28;70110;-42
2022/02/22 06:24:53;;;;;;;;;;;;;;;31.49;54.90;100971.19;4976913;28;65151;-42
2022/02/22 06:27:23;;;;;;;;;;;;;;;31.49;55.04;100971.19;4976944;28;68872;-42
2022/02/22 06:29:53;;;;;;;;;;;;;;;31.51;55.15;100957.41;4960992;28;66318;-42
2022/02/22 06:32:24;;;;;;;;;;;;;;;31.52;55.22;100962.63;4974578;28;70188;-43
2022/02/22 06:34:54;;;;;;;;;;;;;;;31.55;55.00;100959.47;4979339;28;66679;-42
2022/02/22 06:37:26;;;;;;;;;;;;;;;31.57;55.41;100954.66;4965807;28;69362;-42
2022/02/22 06:39:55;;;;;;;;;;;;;;;31.59;55.31;100948.97;4978465;28;66474;-43
2022/02/22 06:42:27;;;;;;;;;;;;;;;31.61;55.34;100939.56;4993034;27;70677;-42
2022/02/22 06:44:57;;;;;;;;;;;;;;;31.64;54.75;100930.16;4975398;28;65066;-42
2022/02/22 06:47:29;;;;;;;;;;;;;;;31.69;55.42;100915.94;4975729;28;69981;-42
2022/02/22 06:49:58;;;;;;;;;;;;;;;31.70;54.77;100895.91;4978252;28;66583;-42
2022/02/22 06:52:33;;;;;;;;;;;;;;;31.73;54.99;100899.00;4976121;28;70233;-42
2022/02/22 06:55:05;;;;;;;;;;;;;;;31.73;54.87;100888.16;4977759;28;66174;-43
2022/02/22 06:57:35;;;;;;;;;;;;;;;31.75;54.80;100887.91;4962729;28;69733;-43
2022/02/22 07:00:07;;;;;;;;;;;;;;;31.76;54.95;100871.44;4963909;28;66638;-42
2022/02/22 07:02:38;;;;;;;;;;;;;;;31.77;54.84;100870.38;4976592;28;70339;-43
2022/02/22 07:05:08;;;;;;;;;;;;;;;31.79;54.89;100864.72;4977775;28;66130;-41
2022/02/22 07:07:39;;;;;;;;;;;;;;;31.78;55.07;100854.91;4975623;28;70226;-42
2022/02/22 07:10:08;;;;;;;;;;;;;;;31.78;55.00;100858.44;4971459;28;65328;-42
2022/02/22 07:12:38;;;;;;;;;;;;;;;31.79;54.92;100860.13;4943026;28;69092;-42
2022/02/22 07:15:08;;;;;;;;;;;;;;;31.79;55.11;100867.44;4973875;28;66905;-42
2022/02/22 07:17:52;;;;;;;;;;;;;;;31.79;55.19;100872.88;4969779;28;69862;-42
2022/02/22 07:20:23;;;;;;;;;;;;;;;31.78;54.94;100882.84;4977397;28;65450;-42
2022/02/22 07:22:55;;;;;;;;;;;;;;;31.78;55.30;100887.47;4987473;28;70348;-41
2022/02/22 07:25:26;;;;;;;;;;;;;;;31.78;54.97;100887.47;4977089;28;66105;-42
2022/02/22 07:27:59;;;;;;;;;;;;;;;31.77;55.41;100894.78;4977215;27;69648;-41
2022/02/22 07:30:30;;;;;;;;;;;;;;;31.79;55.30;100894.56;4975222;28;66984;-41
2022/02/22 07:33:01;;;;;;;;;;;;;;;31.79;55.54;100894.56;4960679;28;69161;-42
2022/02/22 07:35:31;;;;;;;;;;;;;;;31.79;55.71;100889.97;4972181;28;66415;-42
2022/02/22 07:38:01;;;;;;;;;;;;;;;31.79;55.79;100889.97;4954026;28;70274;-41
2022/02/22 07:40:31;;;;;;;;;;;;;;;31.81;55.54;100892.44;4971794;28;66501;-42
2022/02/22 07:43:01;;;;;;;;;;;;;;;31.81;55.87;100904.09;4977987;27;69949;-41
2022/02/22 07:45:31;;;;;;;;;;;;;;;31.82;56.25;100910.38;4978321;28;66651;-41
2022/02/22 07:48:02;;;;;;;;;;;;;;;31.81;55.92;100930.41;4977806;28;69037;-41
2022/02/22 07:50:32;;;;;;;;;;;;;;;31.80;56.67;100940.44;4978481;28;65737;-41
2022/02/22 07:53:02;;;;;;;;;;;;;;;31.78;57.34;100953.38;4981630;28;70688;-42
2022/02/22 07:55:32;;;;;;;;;;;;;;;31.76;57.85;100950.09;4979557;28;66119;-42
2022/02/22 07:58:02;;;;;;;;;;;;;;;31.74;58.10;100932.38;4983221;28;69679;-42
2022/02/22 08:00:32;;;;;;;;;;;;;;;31.73;58.59;100945.13;4983021;28;65549;-43
2022/02/22 08:03:01;;;;;;;;;;;;;;;31.70;58.60;100939.28;4985556;27;69336;-41
2022/02/22 08:05:31;;;;;;;;;;;;;;;31.67;58.84;100956.00;4982863;28;66436;-41
2022/02/22 08:08:02;;;;;;;;;;;;;;;31.65;58.98;100942.69;4984716;28;69940;-41
2022/02/22 08:10:31;;;;;;;;;;;;;;;31.64;58.70;100940.19;4971446;28;66410;-43
2022/02/22 08:13:01;;;;;;;;;;;;;;;31.63;58.76;100922.28;4966073;28;69163;-41
2022/02/22 08:15:31;;;;;;;;;;;;;;;31.60;59.12;100926.25;4982572;28;65431;-41
2022/02/22 08:18:01;;;;;;;;;;;;;;;31.57;58.99;100929.41;4978763;28;70638;-41
2022/02/22 08:20:31;;;;;;;;;;;;;;;31.56;59.12;100942.13;4967190;27;66645;-42
2022/02/22 08:23:02;;;;;;;;;;;;;;;31.55;59.30;100939.66;4977741;28;70405;-40
2022/02/22 08:25:32;;;;;;;;;;;;;;;31.53;59.44;100941.75;4976872;28;65642;-41
2022/02/22 08:28:10;;;;;;;;;;;;;;;31.50;59.64;100928.66;4979369;28;70134;-42
2022/02/22 08:30:41;;;;;;;;;;;;;;;31.48;59.02;100912.63;4963737;28;65580;-42
2022/02/22 08:33:11;;;;;;;;;;;;;;;31.46;59.28;100914.72;4968353;28;70002;-41
2022/02/22 08:35:41;;;;;;;;;;;;;;;31.44;59.54;100929.53;4961178;28;66658;-41
2022/02/22 08:38:11;;;;;;;;;;;;;;;31.43;59.06;100941.44;4989081;28;69591;-41
2022/02/22 08:40:41;;;;;;;;;;;;;;;31.41;59.57;100951.69;4979221;27;67106;-42
2022/02/22 08:43:13;;;;;;;;;;;;;;;31.38;59.54;100942.09;4966861;28;69188;-42
2022/02/22 08:45:44;;;;;;;;;;;;;;;31.35;59.84;100934.38;4979181;28;66202;-42
2022/02/22 08:48:14;;;;;;;;;;;;;;;31.34;59.55;100946.25;4977209;28;70414;-41
2022/02/22 08:50:45;;;;;;;;;;;;;;;31.32;59.82;100953.81;4967656;28;66665;-42
2022/02/22 08:53:17;;;;;;;;;;;;;;;31.30;60.02;100964.03;4979840;27;70722;-41
2022/02/22 08:55:47;;;;;;;;;;;;;;;31.28;59.46;100974.25;4978774;28;65740;-42
2022/02/22 08:58:17;;;;;;;;;;;;;;;31.28;59.61;100985.09;4970626;28;69891;-42
2022/02/22 09:00:47;;;;;;;;;;;;;;;31.27;60.14;100983.44;4970890;28;66164;-41
2022/02/22 09:03:17;;;;;;;;;;;;;;;31.25;59.85;100977.41;4991975;28;70019;-41
2022/02/22 09:05:47;;;;;;;;;;;;;;;31.21;59.93;100977.03;4989659;28;67110;-42
2022/02/22 09:08:18;;;;;;;;;;;;;;;31.22;59.74;100975.16;4979070;28;69758;-41
2022/02/22 09:10:49;;;;;;;;;;;;;;;31.20;60.25;100972.66;4967763;28;67334;-41
2022/02/22 09:13:19;;;;;;;;;;;;;;;31.19;59.86;100972.88;4978603;28;70461;-42
2022/02/22 09:15:50;;;;;;;;;;;;;;;31.15;60.11;100959.78;4977136;28;65491;-41
2022/02/22 09:18:20;;;;;;;;;;;;;;;31.14;60.05;100968.94;4978851;28;69994;-42
2022/02/22 09:20:50;;;;;;;;;;;;;;;31.12;60.27;100971.06;4966765;28;66765;-42
2022/02/22 09:23:19;;;;;;;;;;;;;;;31.12;60.14;100973.78;4989181;27;69259;-42
2022/02/22 09:25:49;;;;;;;;;;;;;;;31.12;60.65;100965.63;4979270;27;67114;-41
2022/02/22 09:28:19;;;;;;;;;;;;;;;31.11;60.80;100955.00;4992495;27;69829;-41
2022/02/22 09:30:49;;;;;;;;;;;;;;;31.09;60.23;100944.41;4983300;28;66183;-41
2022/02/22 09:33:19;;;;;;;;;;;;;;;31.10;60.46;100942.53;4974930;28;69086;-42
2022/02/22 09:35:54;;;;;;;;;;;;;;;31.09;60.43;100957.09;4976879;28;66482;-41
2022/02/22 09:38:24;;;;;;;;;;;;;;;31.08;61.08;100964.41;4976064;28;70029;-41
2022/02/22 09:40:55;;;;;;;;;;;;;;;31.08;60.76;100967.13;4979936;28;66127;-41
2022/02/22 09:43:25;;;;;;;;;;;;;;;31.07;60.65;100965.47;4977839;28;69551;-41
2022/02/22 09:45:56;;;;;;;;;;;;;;;31.07;60.57;100970.06;4977271;28;65475;-42
2022/02/22 09:48:27;;;;;;;;;;;;;;;31.07;60.81;100972.78;4976072;28;69427;-42
2022/02/22 09:50:57;;;;;;;;;;;;;;;31.05;60.90;100964.84;4977431;28;66900;-41
2022/02/22 09:53:27;;;;;;;;;;;;;;;31.06;60.78;100954.84;4976414;28;69774;-42
2022/02/22 09:55:57;;;;;;;;;;;;;;;31.04;60.77;100935.28;4978952;28;65639;-42
2022/02/22 09:58:27;;;;;;;;;;;;;;;31.05;60.42;100937.75;4978175;28;68993;-42
2022/02/22 10:00:59;;;;;;;;;;;;;;;31.04;61.11;100946.94;4980192;27;66197;-42
2022/02/22 10:03:29;;;;;;;;;;;;;;;31.03;61.34;100945.25;4976325;28;69770;-43
2022/02/22 10:06:00;;;;;;;;;;;;;;;31.04;60.85;100963.19;4976388;28;65872;-41
2022/02/22 10:08:35;;;;;;;;;;;;;;;31.04;61.18;100962.38;4959213;28;70629;-42
2022/02/22 10:11:06;;;;;;;;;;;;;;;31.04;60.90;100951.53;4958439;28;66517;-42
2022/02/22 10:13:36;;;;;;;;;;;;;;;31.05;61.07;100947.75;4966645;28;70455;-41
2022/02/22 10:16:13;;;;;;;;;;;;;;;31.05;61.17;100940.47;4972384;28;66874;-41
2022/02/22 10:18:54;;;;;;;;;;;;;;;31.05;60.90;100945.88;4980389;28;70257;-42
2022/02/22 10:21:24;;;;;;;;;;;;;;;31.07;60.57;100953.81;4983017;28;65591;-41
2022/02/22 10:23:54;;;;;;;;;;;;;;;31.08;60.46;100950.84;4976823;28;69149;-41
2022/02/22 10:26:26;;;;;;;;;;;;;;;31.08;60.58;100964.41;4976397;28;66690;-42
2022/02/22 10:28:56;;;;;;;;;;;;;;;31.05;63.32;100959.44;4977582;28;70618;-42
2022/02/22 10:31:32;;;;;;;;;;;;;;;30.99;64.48;100960.31;4976159;28;67305;-43
2022/02/22 10:34:03;;;;;;;;;;;;;;;31.00;65.44;100977.38;4970640;28;70943;-41
2022/02/22 10:36:50;;;;;;;;;;;;;;;30.91;64.28;100990.38;4974313;28;66731;-43
2022/02/22 10:39:21;;;;;;;;;;;;;;;30.81;63.81;100990.00;4977173;27;68980;-42
2022/02/22 10:41:55;;;;;;;;;;;;;;;30.75;63.86;101002.50;4970530;28;64946;-42
2022/02/22 10:44:39;;;;;;;;;;;;;;;30.73;63.95;101010.03;4976457;28;70754;-43
2022/02/22 10:47:20;;;;;;;;;;;;;;;30.63;64.15;101005.06;4979405;28;66383;-45
2022/02/22 10:49:50;;;;;;;;;;;;;;;30.57;64.07;101000.53;4974229;28;69797;-42
2022/02/22 10:52:29;;;;;;;;;;;;;;;30.54;64.50;100997.44;4976634;28;67128;-43
2022/02/22 10:54:59;;;;;;;;;;;;;;;30.58;63.58;100996.75;4965536;28;69937;-42
2022/02/22 10:57:32;;;;;;;;;;;;;;;30.65;64.55;100997.56;4961221;28;66557;-42
2022/02/22 11:00:06;;;;;;;;;;;;;;;30.70;64.36;101008.59;4997346;28;69654;-42
2022/02/22 11:02:48;;;;;;;;;;;;;;;30.73;63.77;101008.16;4966073;28;65433;-42
2022/02/22 11:05:36;;;;;;;;;;;;;;;30.78;64.66;101017.50;4967837;28;70724;-42
2022/02/22 11:08:06;;;;;;;;;;;;;;;30.82;66.01;101007.94;4957063;28;65883;-42
2022/02/22 11:10:37;;;;;;;;;;;;;;;30.86;65.58;101009.16;4941731;28;69213;-42
2022/02/22 11:13:08;;;;;;;;;;;;;;;30.89;65.38;101020.38;4974309;28;66772;-42
2022/02/22 11:15:41;;;;;;;;;;;;;;;30.92;65.54;101024.53;4977720;28;69824;-43
2022/02/22 11:18:19;;;;;;;;;;;;;;;30.93;65.64;101031.63;4977883;28;66786;-43
2022/02/22 11:20:50;;;;;;;;;;;;;;;30.94;65.64;101027.84;4977607;28;70897;-42
2022/02/22 11:23:27;;;;;;;;;;;;;;;30.94;64.39;101033.28;4977533;27;65954;-41
2022/02/22 11:26:17;;;;;;;;;;;;;;;30.92;64.43;101043.47;4985689;27;70345;-42
2022/02/22 11:28:48;;;;;;;;;;;;;;;30.90;64.76;101048.31;4969839;28;65220;-41
2022/02/22 11:31:19;;;;;;;;;;;;;;;30.86;65.08;101052.47;4967196;28;69907;-43
2022/02/22 11:33:53;;;;;;;;;;;;;;;30.70;65.51;101057.34;4959582;28;66704;-40
2022/02/22 11:36:27;;;;;;;;;;;;;;;30.46;66.41;101055.34;4977474;28;70538;-41
2022/02/22 11:38:58;;;;;;;;;;;;;;;30.36;67.07;101065.75;4976286;28;64790;-40
2022/02/22 11:41:40;;;;;;;;;;;;;;;30.23;67.54;101070.19;4978145;28;70403;-40
2022/02/22 11:44:17;;;;;;;;;;;;;;;30.20;68.30;101075.13;4977201;28;64403;-44
2022/02/22 11:46:52;;;;;;;;;;;;;;;30.11;68.41;101076.41;4975002;27;69246;-42
2022/02/22 11:49:25;;;;;;;;;;;;;;;30.06;68.82;101086.00;4977482;28;66014;-40
2022/02/22 11:52:09;;;;;;;;;;;;;;;30.07;68.20;101086.81;4976438;28;71219;-43
2022/02/22 11:54:39;;;;;;;;;;;;;;;29.98;68.76;101088.91;4974265;28;66849;-43
2022/02/22 11:57:10;;;;;;;;;;;;;;;29.98;68.79;101088.09;4980918;28;70686;-42
2022/02/22 11:59:51;;;;;;;;;;;;;;;29.96;68.95;101092.88;4981844;28;66287;-42
2022/02/22 12:02:28;;;;;;;;;;;;;;;29.91;69.06;101087.25;4980164;28;69257;-41
2022/02/22 12:05:00;;;;;;;;;;;;;;;29.94;69.53;101097.66;4980756;28;66095;-41
2022/02/22 12:07:31;;;;;;;;;;;;;;;29.91;69.58;101103.47;4985478;27;69267;-41
2022/02/22 12:10:07;;;;;;;;;;;;;;;29.90;69.72;101107.22;4984211;28;66626;-42
2022/02/22 12:12:37;;;;;;;;;;;;;;;29.89;69.74;101102.84;4976998;28;70374;-42
2022/02/22 12:15:08;;;;;;;;;;;;;;;29.91;69.24;101106.19;4978718;28;66413;-41
2022/02/22 12:17:39;;;;;;;;;;;;;;;29.81;69.59;101117.41;4977731;28;69927;-41
2022/02/22 12:20:15;;;;;;;;;;;;;;;29.80;69.56;101124.69;4975841;28;66647;-41
2022/02/22 12:22:48;;;;;;;;;;;;;;;29.78;69.94;101124.09;4977901;28;69859;-42
2022/02/22 12:25:22;;;;;;;;;;;;;;;29.75;69.78;101127.16;4976555;28;66018;-42
2022/02/22 12:27:59;;;;;;;;;;;;;;;29.75;69.69;101132.56;4977747;28;69969;-42
2022/02/22 12:30:33;;;;;;;;;;;;;;;29.74;69.90;101138.22;4960008;28;66344;-43
2022/02/22 12:33:04;;;;;;;;;;;;;;;29.70;69.66;101151.31;4975630;28;70272;-42
2022/02/22 12:35:35;;;;;;;;;;;;;;;29.69;69.66;101155.03;4977769;28;66326;-42
2022/02/22 12:38:13;;;;;;;;;;;;;;;29.68;69.50;101156.09;4979857;28;70004;-41
2022/02/22 12:40:43;;;;;;;;;;;;;;;29.68;69.40;101163.38;4980198;28;66733;-41
2022/02/22 12:43:42;;;;;;;;;;;;;;;29.66;69.41;101179.78;4977322;28;69258;-41
2022/02/22 12:46:12;;;;;;;;;;;;;;;29.65;69.13;101180.84;4977282;28;67577;-41
2022/02/22 12:48:48;;;;;;;;;;;;;;;29.64;69.21;101184.56;4975178;28;69529;-43
2022/02/22 12:51:23;;;;;;;;;;;;;;;29.68;69.86;101183.13;4977879;28;66683;-42
2022/02/22 12:53:56;;;;;;;;;;;;;;;29.63;69.37;101188.31;4977736;28;69352;-44
2022/02/22 12:56:28;;;;;;;;;;;;;;;29.59;69.46;101195.16;4977300;28;65981;-42